createdAt,value
2017-10-19T00:02:27.817Z,11.10
2017-10-19T00:04:55.393Z,11.10
2017-10-19T00:07:23.861Z,11.10
2017-10-19T00:09:51.434Z,11.10
2017-10-19T00:12:19.800Z,11.10
2017-10-19T00:14:48.844Z,11.10
2017-10-19T00:17:16.560Z,11.10
2017-10-19T00:19:46.565Z,10.90
2017-10-19T00:22:14.140Z,10.90
2017-10-19T00:24:41.736Z,10.90
2017-10-19T00:27:09.318Z,10.90
2017-10-19T00:29:37.012Z,10.90
2017-10-19T00:32:04.580Z,10.80
2017-10-19T00:34:32.177Z,10.80
2017-10-19T00:36:59.758Z,10.70
2017-10-19T00:39:27.356Z,10.70
2017-10-19T00:41:55.028Z,10.70
2017-10-19T00:44:22.599Z,10.70
2017-10-19T00:46:50.960Z,10.70
2017-10-19T00:49:18.531Z,10.60
2017-10-19T00:51:47.937Z,10.60
2017-10-19T00:54:15.508Z,10.60
2017-10-19T00:56:43.873Z,10.60
2017-10-19T00:59:11.540Z,10.60
2017-10-19T01:01:39.141Z,10.60
2017-10-19T01:04:06.714Z,10.60
2017-10-19T01:06:34.304Z,10.50
2017-10-19T01:09:01.872Z,10.60
2017-10-19T01:11:29.484Z,10.60
2017-10-19T01:13:57.264Z,10.50
2017-10-19T01:16:25.338Z,10.50
2017-10-19T01:18:53.204Z,10.40
2017-10-19T01:21:21.195Z,10.40
2017-10-19T01:23:49.878Z,10.30
2017-10-19T01:26:17.594Z,10.30
2017-10-19T01:28:46.868Z,10.30
2017-10-19T01:31:15.204Z,10.30
2017-10-19T01:33:42.908Z,10.30
2017-10-19T01:36:10.504Z,10.30
2017-10-19T01:38:38.085Z,10.30
2017-10-19T01:41:05.684Z,10.40
2017-10-19T01:43:33.261Z,10.40
2017-10-19T01:46:01.649Z,10.30
2017-10-19T01:48:30.001Z,10.20
2017-10-19T01:50:57.576Z,10.20
2017-10-19T01:53:25.201Z,10.10
2017-10-19T01:55:52.900Z,10.10
2017-10-19T01:58:20.468Z,10.00
2017-10-19T02:00:48.832Z,10.00
2017-10-19T02:03:16.400Z,9.90
2017-10-19T02:05:43.988Z,9.90
2017-10-19T02:08:12.316Z,9.80
2017-10-19T02:10:39.909Z,9.80
2017-10-19T02:13:08.253Z,9.80
2017-10-19T02:15:35.844Z,9.80
2017-10-19T02:18:04.184Z,9.70
2017-10-19T02:20:31.776Z,9.70
2017-10-19T02:22:59.344Z,9.70
2017-10-19T02:25:27.239Z,9.70
2017-10-19T02:27:55.500Z,9.70
2017-10-19T02:30:24.137Z,9.70
2017-10-19T02:32:51.741Z,9.70
2017-10-19T02:35:20.074Z,9.60
2017-10-19T02:37:49.772Z,9.60
2017-10-19T02:40:18.793Z,9.60
2017-10-19T02:42:48.913Z,9.60
2017-10-19T02:45:16.490Z,9.60
2017-10-19T02:47:44.092Z,9.50
2017-10-19T02:50:11.656Z,9.50
2017-10-19T02:52:39.387Z,9.30
2017-10-19T02:55:07.044Z,9.20
2017-10-19T02:57:34.705Z,9.20
2017-10-19T03:00:02.304Z,9.10
2017-10-19T03:02:29.872Z,9.10
2017-10-19T03:04:57.469Z,9.00
2017-10-19T03:07:25.036Z,9.00
2017-10-19T03:09:52.629Z,8.90
2017-10-19T03:12:20.982Z,8.70
2017-10-19T03:14:48.864Z,8.70
2017-10-19T03:17:17.200Z,8.50
2017-10-19T03:19:45.205Z,8.50
2017-10-19T03:22:12.769Z,8.50
2017-10-19T03:24:40.344Z,8.50
2017-10-19T03:27:09.953Z,8.50
2017-10-19T03:29:38.313Z,8.50
2017-10-19T03:32:05.904Z,8.50
2017-10-19T03:34:33.473Z,8.60
2017-10-19T03:37:01.072Z,8.60
2017-10-19T03:39:28.645Z,8.70
2017-10-19T03:41:56.704Z,8.90
2017-10-19T03:44:24.269Z,8.90
2017-10-19T03:46:52.545Z,8.90
2017-10-19T03:49:20.709Z,9.10
2017-10-19T03:51:51.208Z,9.10
2017-10-19T03:54:18.796Z,9.20
2017-10-19T03:56:48.652Z,9.60
2017-10-19T03:59:17.084Z,9.60
2017-10-19T04:01:44.671Z,9.60
2017-10-19T04:04:12.890Z,9.70
2017-10-19T04:06:40.500Z,9.80
2017-10-19T04:09:08.072Z,9.80
2017-10-19T04:11:35.640Z,9.90
2017-10-19T04:14:04.736Z,9.90
2017-10-19T04:16:32.304Z,9.90
2017-10-19T04:19:00.829Z,9.90
2017-10-19T04:21:28.396Z,9.90
2017-10-19T04:23:55.966Z,9.90
2017-10-19T04:26:23.553Z,9.90
2017-10-19T04:28:51.125Z,9.90
2017-10-19T04:31:18.719Z,9.90
2017-10-19T04:33:47.754Z,9.90
2017-10-19T04:36:15.351Z,9.90
2017-10-19T04:38:43.700Z,9.80
2017-10-19T04:41:11.295Z,9.80
2017-10-19T04:43:39.625Z,9.70
2017-10-19T04:46:07.220Z,9.70
2017-10-19T04:48:34.797Z,9.50
2017-10-19T04:51:03.472Z,9.00
2017-10-19T04:53:31.807Z,8.80
2017-10-19T04:55:59.376Z,8.80
2017-10-19T04:58:26.972Z,8.70
2017-10-19T05:00:54.540Z,8.50
2017-10-19T05:03:22.892Z,8.50
2017-10-19T05:05:50.468Z,8.40
2017-10-19T05:08:18.064Z,8.30
2017-10-19T05:10:47.812Z,8.50
2017-10-19T05:13:15.428Z,8.50
2017-10-19T05:15:43.760Z,8.40
2017-10-19T05:18:11.444Z,8.40
2017-10-19T05:20:39.011Z,8.30
2017-10-19T05:23:06.868Z,8.30
2017-10-19T05:25:35.948Z,8.00
2017-10-19T05:28:03.534Z,8.00
2017-10-19T05:30:31.120Z,8.00
2017-10-19T05:32:58.690Z,7.90
2017-10-19T05:35:26.279Z,7.90
2017-10-19T05:37:53.849Z,7.90
2017-10-19T05:40:21.439Z,8.00
2017-10-19T05:42:48.999Z,8.10
2017-10-19T05:45:17.369Z,8.00
2017-10-19T05:47:47.668Z,8.10
2017-10-19T05:50:15.356Z,8.00
2017-10-19T05:52:43.693Z,8.10
2017-10-19T05:55:11.284Z,8.10
2017-10-19T05:57:38.852Z,8.20
2017-10-19T06:00:06.515Z,8.20
2017-10-19T06:02:34.118Z,8.20
2017-10-19T06:05:01.708Z,8.30
2017-10-19T06:07:29.268Z,8.30
2017-10-19T06:09:57.277Z,8.30
2017-10-19T06:12:25.661Z,8.40
2017-10-19T06:14:53.997Z,8.40
2017-10-19T06:17:33.584Z,8.40
2017-10-19T06:20:01.231Z,8.40
2017-10-19T06:22:28.824Z,8.40
2017-10-19T06:24:57.173Z,8.70
2017-10-19T06:27:24.760Z,8.60
2017-10-19T06:29:53.095Z,9.30
2017-10-19T06:32:20.693Z,9.20
2017-10-19T06:34:49.651Z,10.00
2017-10-19T06:37:17.435Z,9.90
2017-10-19T06:39:45.937Z,10.40
2017-10-19T06:42:14.281Z,11.10
2017-10-19T06:44:42.144Z,11.00
2017-10-19T06:47:09.829Z,11.30
2017-10-19T06:49:37.404Z,11.70
2017-10-19T06:52:05.769Z,12.50
2017-10-19T06:54:33.344Z,12.50
2017-10-19T06:57:01.706Z,13.10
2017-10-19T06:59:30.045Z,13.50
2017-10-19T07:01:57.636Z,13.50
2017-10-19T07:04:25.204Z,13.90
2017-10-19T07:06:52.875Z,14.20
2017-10-19T07:09:20.537Z,14.60
2017-10-19T07:11:49.524Z,15.20
2017-10-19T07:14:17.192Z,15.20
2017-10-19T07:16:46.691Z,15.80
2017-10-19T07:19:14.357Z,15.80
2017-10-19T07:21:43.456Z,16.40
2017-10-19T07:24:13.311Z,16.90
2017-10-19T07:26:40.884Z,16.90
2017-10-19T07:29:08.480Z,17.60
2017-10-19T07:31:36.152Z,18.30
2017-10-19T07:34:03.745Z,18.50
2017-10-19T07:36:31.316Z,18.30
2017-10-19T07:38:58.916Z,18.30
2017-10-19T07:41:26.484Z,18.80
2017-10-19T07:43:54.260Z,19.30
2017-10-19T07:46:23.352Z,19.80
2017-10-19T07:48:52.431Z,20.30
2017-10-19T07:51:20.025Z,20.30
2017-10-19T07:53:49.504Z,20.80
2017-10-19T07:56:17.100Z,20.80
2017-10-19T07:58:46.359Z,20.80
2017-10-19T08:01:14.071Z,20.80
2017-10-19T08:03:42.425Z,22.00
2017-10-19T08:06:10.008Z,22.00
2017-10-19T08:08:38.461Z,22.60
2017-10-19T08:11:06.128Z,22.60
2017-10-19T08:13:33.728Z,22.80
2017-10-19T08:16:01.296Z,23.30
2017-10-19T08:18:29.657Z,23.20
2017-10-19T08:20:57.992Z,23.10
2017-10-19T08:23:25.673Z,23.10
2017-10-19T08:25:54.025Z,22.80
2017-10-19T08:28:21.996Z,22.80
2017-10-19T08:30:49.569Z,22.70
2017-10-19T08:33:17.288Z,23.10
2017-10-19T08:35:45.780Z,24.00
2017-10-19T08:38:13.352Z,24.50
2017-10-19T08:40:40.948Z,24.30
2017-10-19T08:43:08.613Z,24.10
2017-10-19T08:45:36.209Z,24.40
2017-10-19T08:48:03.829Z,24.60
2017-10-19T08:50:31.424Z,24.70
2017-10-19T08:52:58.996Z,25.50
2017-10-19T08:55:26.592Z,25.90
2017-10-19T08:57:54.164Z,27.00
2017-10-19T09:00:22.248Z,27.90
2017-10-19T09:02:49.829Z,28.00
2017-10-19T09:05:18.167Z,28.60
2017-10-19T09:07:47.793Z,28.80
2017-10-19T09:10:15.355Z,28.80
2017-10-19T09:12:42.953Z,29.60
2017-10-19T09:15:10.525Z,30.20
2017-10-19T09:17:38.119Z,30.70
2017-10-19T09:20:05.704Z,30.70
2017-10-19T09:22:33.464Z,30.50
2017-10-19T09:25:01.044Z,30.70
2017-10-19T09:27:29.380Z,30.50
2017-10-19T09:29:56.973Z,30.60
2017-10-19T09:32:24.539Z,31.00
2017-10-19T09:34:52.892Z,31.70
2017-10-19T09:37:20.459Z,31.70
2017-10-19T09:39:49.561Z,31.80
2017-10-19T09:42:17.132Z,31.70
2017-10-19T09:44:46.417Z,31.90
2017-10-19T09:47:13.996Z,31.80
2017-10-19T09:49:42.366Z,32.30
2017-10-19T09:52:10.029Z,32.30
2017-10-19T09:54:37.688Z,32.20
2017-10-19T09:57:05.344Z,32.50
2017-10-19T09:59:32.931Z,32.70
2017-10-19T10:02:01.293Z,31.80
2017-10-19T10:04:30.080Z,31.30
2017-10-19T10:06:58.432Z,31.50
2017-10-19T10:09:26.021Z,31.50
2017-10-19T10:11:54.405Z,33.40
2017-10-19T10:14:21.984Z,33.30
2017-10-19T10:16:49.586Z,34.10
2017-10-19T10:19:18.000Z,35.20
2017-10-19T10:21:46.883Z,35.10
2017-10-19T10:24:14.456Z,35.50
2017-10-19T10:26:42.217Z,35.90
2017-10-19T10:29:09.797Z,36.20
2017-10-19T10:31:38.157Z,36.60
2017-10-19T10:34:05.749Z,36.60
2017-10-19T10:36:33.316Z,36.90
2017-10-19T10:39:00.908Z,37.10
2017-10-19T10:41:28.480Z,37.60
2017-10-19T10:43:56.340Z,37.70
2017-10-19T10:46:23.929Z,37.80
2017-10-19T10:48:51.516Z,38.40
2017-10-19T10:51:19.149Z,39.30
2017-10-19T10:53:48.620Z,40.00
2017-10-19T10:56:16.320Z,40.00
2017-10-19T10:58:43.897Z,40.00
2017-10-19T11:01:12.256Z,40.70
2017-10-19T11:03:39.825Z,40.70
2017-10-19T11:06:07.411Z,40.20
2017-10-19T11:08:34.975Z,40.50
2017-10-19T11:11:02.603Z,40.30
2017-10-19T11:13:30.177Z,39.30
2017-10-19T11:15:58.548Z,38.20
2017-10-19T11:18:26.916Z,37.50
2017-10-19T11:20:54.480Z,37.50
2017-10-19T11:23:22.077Z,36.30
2017-10-19T11:25:49.640Z,35.90
2017-10-19T11:28:17.361Z,35.70
2017-10-19T11:30:46.660Z,34.80
2017-10-19T11:33:14.224Z,34.70
2017-10-19T11:35:41.888Z,34.40
2017-10-19T11:38:09.461Z,34.10
2017-10-19T11:40:37.836Z,35.10
2017-10-19T11:43:06.185Z,35.90
2017-10-19T11:45:33.776Z,35.90
2017-10-19T11:48:01.432Z,35.90
2017-10-19T11:50:29.792Z,35.60
2017-10-19T11:52:57.359Z,35.60
2017-10-19T11:55:25.028Z,35.70
2017-10-19T11:57:52.700Z,34.40
2017-10-19T12:00:20.296Z,34.60
2017-10-19T12:02:49.524Z,35.60
2017-10-19T12:05:17.319Z,35.60
2017-10-19T12:07:46.581Z,35.70
2017-10-19T12:10:14.144Z,35.60
2017-10-19T12:12:41.732Z,36.00
2017-10-19T12:15:09.517Z,36.30
2017-10-19T12:17:37.848Z,36.90
2017-10-19T12:20:05.413Z,36.90
2017-10-19T12:22:33.108Z,37.00
2017-10-19T12:25:00.674Z,36.20
2017-10-19T12:27:28.266Z,35.30
2017-10-19T12:29:55.892Z,33.10
2017-10-19T12:32:23.476Z,31.40
2017-10-19T12:34:51.800Z,29.70
2017-10-19T12:37:19.497Z,29.60
2017-10-19T12:39:49.613Z,28.00
2017-10-19T12:42:17.380Z,28.00
2017-10-19T12:44:45.960Z,27.80
2017-10-19T12:47:13.520Z,27.50
2017-10-19T12:49:41.200Z,27.20
2017-10-19T12:52:09.537Z,28.10
2017-10-19T12:54:37.228Z,28.10
2017-10-19T12:57:04.892Z,28.70
2017-10-19T12:59:32.480Z,29.60
2017-10-19T13:02:00.833Z,28.90
2017-10-19T13:04:28.492Z,28.80
2017-10-19T13:06:56.166Z,27.20
2017-10-19T13:09:24.536Z,25.00
2017-10-19T13:11:52.096Z,24.90
2017-10-19T13:14:19.660Z,24.40
2017-10-19T13:16:49.572Z,23.50
2017-10-19T13:19:18.666Z,23.40
2017-10-19T13:21:48.017Z,23.40
2017-10-19T13:24:15.578Z,23.40
2017-10-19T13:26:43.145Z,23.40
2017-10-19T13:29:10.729Z,23.60
2017-10-19T13:31:38.412Z,24.50
2017-10-19T13:34:06.000Z,26.40
2017-10-19T13:36:34.327Z,29.70
2017-10-19T13:39:01.925Z,29.60
2017-10-19T13:41:29.577Z,31.00
2017-10-19T13:43:57.933Z,32.20
2017-10-19T13:46:25.508Z,32.10
2017-10-19T13:48:53.099Z,32.40
2017-10-19T13:51:21.432Z,32.70
2017-10-19T13:53:49.181Z,32.70
2017-10-19T13:56:16.782Z,33.10
2017-10-19T13:58:44.344Z,33.10
2017-10-19T14:01:11.936Z,33.50
2017-10-19T14:03:39.572Z,33.50
2017-10-19T14:06:07.932Z,32.70
2017-10-19T14:08:35.500Z,32.70
2017-10-19T14:11:03.092Z,30.50
2017-10-19T14:13:31.446Z,29.00
2017-10-19T14:15:59.796Z,28.60
2017-10-19T14:18:27.386Z,28.50
2017-10-19T14:20:55.769Z,27.80
2017-10-19T14:23:23.420Z,27.70
2017-10-19T14:25:51.008Z,27.40
2017-10-19T14:28:19.340Z,26.20
2017-10-19T14:30:47.983Z,26.20
2017-10-19T14:33:15.544Z,26.00
2017-10-19T14:35:43.280Z,25.90
2017-10-19T14:38:10.853Z,25.50
2017-10-19T14:40:39.196Z,24.30
2017-10-19T14:43:06.791Z,24.20
2017-10-19T14:45:35.119Z,22.70
2017-10-19T14:48:03.051Z,22.70
2017-10-19T14:50:31.385Z,22.80
2017-10-19T14:52:58.972Z,22.80
2017-10-19T14:55:26.620Z,23.20
2017-10-19T14:57:54.488Z,23.40
2017-10-19T15:00:22.813Z,23.10
2017-10-19T15:02:50.436Z,23.00
2017-10-19T15:05:18.909Z,22.60
2017-10-19T15:07:48.696Z,22.50
2017-10-19T15:10:16.280Z,22.50
2017-10-19T15:12:43.844Z,22.60
2017-10-19T15:15:11.517Z,22.60
2017-10-19T15:17:39.785Z,22.40
2017-10-19T15:20:08.172Z,22.10
2017-10-19T15:22:35.744Z,22.10
2017-10-19T15:25:04.099Z,21.90
2017-10-19T15:27:31.664Z,21.90
2017-10-19T15:29:59.253Z,21.70
2017-10-19T15:32:27.604Z,21.60
2017-10-19T15:34:55.196Z,21.50
2017-10-19T15:37:23.542Z,21.20
2017-10-19T15:39:51.925Z,21.00
2017-10-19T15:42:19.487Z,21.00
2017-10-19T15:44:48.688Z,20.70
2017-10-19T15:47:16.348Z,20.40
2017-10-19T15:49:43.936Z,20.10
2017-10-19T15:52:12.284Z,19.50
2017-10-19T15:54:39.948Z,19.50
2017-10-19T15:57:07.510Z,19.30
2017-10-19T15:59:35.101Z,19.10
2017-10-19T16:02:02.669Z,18.90
2017-10-19T16:04:30.266Z,18.70
2017-10-19T16:06:57.831Z,18.50
2017-10-19T16:09:25.420Z,18.40
2017-10-19T16:11:53.004Z,18.30
2017-10-19T16:14:20.576Z,18.20
2017-10-19T16:16:49.628Z,17.90
2017-10-19T16:19:17.192Z,17.90
2017-10-19T16:21:44.785Z,17.80
2017-10-19T16:24:12.349Z,17.70
2017-10-19T16:26:39.969Z,17.60
2017-10-19T16:29:07.531Z,17.50
2017-10-19T16:31:35.400Z,17.40
2017-10-19T16:34:02.984Z,17.40
2017-10-19T16:36:31.344Z,17.40
2017-10-19T16:38:59.000Z,17.40
2017-10-19T16:41:26.661Z,17.50
2017-10-19T16:43:54.324Z,17.60
2017-10-19T16:46:21.888Z,17.60
2017-10-19T16:48:49.556Z,17.70
2017-10-19T16:51:18.628Z,17.80
2017-10-19T16:53:47.208Z,17.80
2017-10-19T16:56:14.793Z,17.80
2017-10-19T16:58:42.451Z,17.80
2017-10-19T17:01:10.021Z,17.80
2017-10-19T17:03:38.503Z,17.90
2017-10-19T17:06:06.166Z,17.80
2017-10-19T17:08:34.165Z,17.90
2017-10-19T17:11:01.752Z,17.90
2017-10-19T17:13:29.316Z,17.90
2017-10-19T17:15:56.903Z,17.90
2017-10-19T17:18:24.468Z,17.90
2017-10-19T17:20:52.056Z,17.90
2017-10-19T17:23:20.391Z,18.00
2017-10-19T17:25:49.307Z,17.90
2017-10-19T17:28:17.637Z,17.90
2017-10-19T17:30:46.676Z,17.80
2017-10-19T17:33:14.272Z,17.80
2017-10-19T17:35:41.841Z,17.80
2017-10-19T17:38:09.658Z,17.80
2017-10-19T17:40:37.325Z,17.80
2017-10-19T17:43:04.888Z,17.80
2017-10-19T17:45:34.016Z,17.80
2017-10-19T17:48:01.592Z,17.80
2017-10-19T17:50:29.161Z,17.80
2017-10-19T17:52:56.748Z,17.80
2017-10-19T17:55:24.324Z,17.70
2017-10-19T17:57:51.919Z,17.70
2017-10-19T18:00:19.477Z,17.70
2017-10-19T18:02:48.164Z,17.60
2017-10-19T18:05:15.765Z,17.60
2017-10-19T18:07:43.331Z,17.60
2017-10-19T18:10:10.923Z,17.50
2017-10-19T18:12:38.500Z,17.50
2017-10-19T18:15:06.861Z,17.30
2017-10-19T18:17:34.424Z,17.30
2017-10-19T18:20:02.264Z,17.30
2017-10-19T18:22:29.840Z,17.20
2017-10-19T18:24:57.512Z,17.10
2017-10-19T18:27:25.085Z,17.10
2017-10-19T18:29:53.547Z,17.00
2017-10-19T18:32:21.112Z,17.00
2017-10-19T18:34:49.575Z,16.90
2017-10-19T18:37:17.140Z,16.90
2017-10-19T18:39:45.117Z,16.90
2017-10-19T18:42:12.676Z,16.70
2017-10-19T18:44:40.344Z,16.60
2017-10-19T18:47:07.936Z,16.40
2017-10-19T18:49:35.565Z,16.30
2017-10-19T18:52:03.224Z,16.20
2017-10-19T18:54:30.791Z,16.00
2017-10-19T18:56:58.385Z,15.90
2017-10-19T18:59:25.961Z,15.80
2017-10-19T19:01:53.579Z,15.70
2017-10-19T19:04:21.949Z,15.50
2017-10-19T19:06:49.716Z,15.50
2017-10-19T19:09:17.384Z,15.40
2017-10-19T19:11:45.880Z,15.40
2017-10-19T19:14:14.340Z,15.20
2017-10-19T19:16:41.999Z,15.20
2017-10-19T19:19:09.594Z,15.10
2017-10-19T19:21:37.928Z,15.00
2017-10-19T19:24:05.612Z,14.90
2017-10-19T19:26:34.684Z,14.70
2017-10-19T19:29:02.369Z,14.70
2017-10-19T19:31:30.700Z,14.70
2017-10-19T19:33:58.621Z,14.70
2017-10-19T19:36:26.960Z,14.70
2017-10-19T19:38:54.552Z,14.70
2017-10-19T19:41:22.212Z,14.70
2017-10-19T19:43:49.789Z,14.70
2017-10-19T19:46:18.144Z,14.60
2017-10-19T19:48:47.645Z,14.60
2017-10-19T19:51:15.244Z,14.60
2017-10-19T19:53:43.581Z,14.60
2017-10-19T19:56:11.269Z,14.60
2017-10-19T19:58:38.836Z,14.60
2017-10-19T20:01:07.201Z,14.60
2017-10-19T20:03:34.865Z,14.60
2017-10-19T20:06:02.533Z,14.60
2017-10-19T20:08:30.123Z,14.60
2017-10-19T20:10:57.684Z,14.60
2017-10-19T20:13:25.600Z,14.60
2017-10-19T20:15:53.168Z,14.60
2017-10-19T20:18:20.851Z,14.60
2017-10-19T20:20:49.595Z,14.60
2017-10-19T20:23:17.189Z,14.50
2017-10-19T20:25:44.756Z,14.50
2017-10-19T20:28:13.332Z,14.20
2017-10-19T20:30:40.900Z,14.20
2017-10-19T20:33:08.474Z,14.00
2017-10-19T20:35:36.841Z,13.70
2017-10-19T20:38:05.916Z,13.50
2017-10-19T20:40:33.510Z,13.60
2017-10-19T20:43:01.845Z,13.40
2017-10-19T20:45:29.438Z,13.40
2017-10-19T20:47:57.000Z,13.40
2017-10-19T20:50:26.120Z,13.60
2017-10-19T20:52:53.697Z,13.50
2017-10-19T20:55:21.277Z,13.70
2017-10-19T20:57:49.704Z,13.60
2017-10-19T21:00:18.039Z,13.50
2017-10-19T21:02:47.684Z,13.50
2017-10-19T21:05:15.317Z,13.50
2017-10-19T21:07:42.913Z,13.50
2017-10-19T21:10:11.249Z,13.40
2017-10-19T21:12:38.849Z,13.40
2017-10-19T21:15:06.425Z,13.50
2017-10-19T21:17:34.973Z,13.60
2017-10-19T21:20:02.549Z,13.60
2017-10-19T21:22:30.120Z,13.70
2017-10-19T21:24:58.484Z,13.60
2017-10-19T21:27:26.144Z,13.60
2017-10-19T21:29:53.740Z,13.70
2017-10-19T21:32:22.068Z,13.70
2017-10-19T21:34:49.664Z,13.70
2017-10-19T21:37:18.029Z,13.80
2017-10-19T21:39:47.061Z,13.80
2017-10-19T21:42:14.638Z,13.80
2017-10-19T21:44:42.348Z,13.80
2017-10-19T21:47:09.920Z,13.90
2017-10-19T21:49:38.576Z,13.90
2017-10-19T21:52:06.173Z,13.90
2017-10-19T21:54:34.521Z,14.00
2017-10-19T21:57:02.124Z,13.90
2017-10-19T21:59:30.476Z,14.00
2017-10-19T22:01:58.136Z,14.00
2017-10-19T22:04:25.700Z,14.10
2017-10-19T22:06:53.361Z,14.10
2017-10-19T22:09:20.933Z,14.00
2017-10-19T22:11:49.704Z,14.00
2017-10-19T22:14:18.041Z,14.00
2017-10-19T22:16:47.804Z,13.90
2017-10-19T22:19:16.143Z,13.90
2017-10-19T22:21:43.745Z,13.90
2017-10-19T22:24:11.584Z,13.80
2017-10-19T22:26:39.176Z,13.70
2017-10-19T22:29:07.521Z,13.70
2017-10-19T22:31:35.120Z,13.70
2017-10-19T22:34:03.457Z,13.60
2017-10-19T22:36:31.244Z,13.60
2017-10-19T22:38:59.582Z,13.60
2017-10-19T22:41:27.151Z,13.60
2017-10-19T22:43:54.740Z,13.60
2017-10-19T22:46:22.308Z,13.50
2017-10-19T22:48:49.901Z,13.50
2017-10-19T22:51:18.240Z,13.50
2017-10-19T22:53:46.013Z,13.50
2017-10-19T22:56:13.575Z,13.50
2017-10-19T22:58:41.445Z,13.50
2017-10-19T23:01:09.028Z,13.50
2017-10-19T23:03:37.667Z,13.60
2017-10-19T23:06:05.261Z,13.60
2017-10-19T23:08:33.605Z,13.50
2017-10-19T23:11:01.478Z,13.50
2017-10-19T23:13:29.053Z,13.50
2017-10-19T23:15:56.647Z,13.50
2017-10-19T23:18:24.983Z,13.70
2017-10-19T23:20:52.577Z,13.70
2017-10-19T23:23:20.913Z,13.80
2017-10-19T23:25:48.837Z,13.80
2017-10-19T23:28:16.468Z,13.80
2017-10-19T23:30:46.501Z,13.70
2017-10-19T23:33:14.833Z,13.80
2017-10-19T23:35:42.732Z,13.80
2017-10-19T23:38:11.069Z,13.80
2017-10-19T23:40:38.635Z,13.70
2017-10-19T23:43:06.337Z,13.80
2017-10-19T23:45:33.908Z,13.90
2017-10-19T23:48:02.372Z,13.80
2017-10-19T23:50:29.941Z,13.80
2017-10-19T23:52:58.095Z,13.80
2017-10-19T23:55:25.661Z,13.70
2017-10-19T23:57:53.228Z,13.70
